Time;durP1;ratioP1;P1;durP2;ratioP2;P2;SDS_P1;SDS_P2;PMS_P1;PMS_P2;Temp;Humidity;BMP_temperature;BMP_pressure;BME280_temperature;BME280_humidity;BME280_pressure;Samples;Min_cycle;Max_cycle;Signal;HPM_P1;HPM_P2
2023/01/22 00:02:39;;;;;;;3.90;1.30;;;15.90;66.70;;;;;;5111291;28;20258;-63
2023/01/22 00:05:27;;;;;;;1.75;1.48;;;15.90;66.70;;;;;;5111253;28;20195;-63
2023/01/22 00:08:15;;;;;;;1.33;0.90;;;15.90;66.70;;;;;;5110660;28;20206;-63
2023/01/22 00:11:05;;;;;;;1.65;1.00;;;15.90;66.80;;;;;;5111083;28;20533;-61
2023/01/22 00:13:53;;;;;;;1.52;1.00;;;15.90;66.70;;;;;;5110665;28;20195;-62
2023/01/22 00:16:41;;;;;;;1.02;0.93;;;16.00;66.70;;;;;;5111952;28;20687;-64
2023/01/22 00:19:29;;;;;;;1.70;1.10;;;16.00;66.60;;;;;;5110222;28;20246;-63
2023/01/22 00:22:17;;;;;;;1.15;1.05;;;16.00;66.60;;;;;;5111728;28;20688;-61
2023/01/22 00:25:06;;;;;;;1.38;1.27;;;16.00;66.60;;;;;;5109901;28;20199;-64
2023/01/22 00:27:55;;;;;;;1.30;1.20;;;15.90;66.80;;;;;;5109840;28;20188;-60
2023/01/22 00:30:44;;;;;;;1.67;1.20;;;15.70;66.90;;;;;;5110553;28;20305;-62
2023/01/22 00:33:32;;;;;;;1.10;1.00;;;15.70;67.30;;;;;;5111347;28;20926;-64
2023/01/22 00:36:22;;;;;;;1.92;1.30;;;15.60;67.30;;;;;;5118897;22;20365;-59
2023/01/22 00:39:10;;;;;;;1.02;1.02;;;15.70;67.40;;;;;;5071083;28;20302;-59
2023/01/22 00:41:58;;;;;;;1.70;0.95;;;15.60;67.40;;;;;;5072029;28;20233;-59
2023/01/22 00:44:47;;;;;;;1.52;1.00;;;15.60;67.30;;;;;;5071433;28;20196;-59
2023/01/22 00:47:35;;;;;;;1.10;0.98;;;15.70;67.40;;;;;;5089434;28;20591;-59
2023/01/22 00:50:23;;;;;;;1.60;1.10;;;15.70;67.40;;;;;;5091353;28;20557;-59
2023/01/22 00:53:11;;;;;;;1.15;1.05;;;15.80;67.40;;;;;;5091421;28;20232;-59
2023/01/22 00:56:01;;;;;;;1.58;1.15;;;15.80;67.30;;;;;;5092170;28;20644;-59
2023/01/22 00:58:49;;;;;;;1.25;0.90;;;15.80;67.20;;;;;;5071906;28;20208;-59
2023/01/22 01:01:39;;;;;;;1.25;1.05;;;15.80;67.20;;;;;;5071298;28;20688;-59
2023/01/22 01:04:27;;;;;;;1.55;1.13;;;15.80;67.20;;;;;;5071865;28;20266;-59
2023/01/22 01:07:15;;;;;;;1.05;0.70;;;15.80;67.10;;;;;;5070336;28;20213;-59
2023/01/22 01:10:03;;;;;;;1.20;1.10;;;15.80;67.10;;;;;;5070025;28;20200;-59
2023/01/22 01:12:51;;;;;;;1.00;1.00;;;15.90;67.10;;;;;;5071256;28;20238;-59
2023/01/22 01:15:40;;;;;;;0.98;0.98;;;15.80;74.60;;;;;;5070781;28;20204;-59
2023/01/22 01:18:31;;;;;;;1.63;1.52;;;15.80;67.00;;;;;;5071788;28;20231;-59
2023/01/22 01:21:19;;;;;;;1.45;1.13;;;15.80;67.10;;;;;;5069800;28;20618;-61
2023/01/22 01:24:08;;;;;;;1.20;0.93;;;15.80;67.20;;;;;;5069666;28;20208;-61
2023/01/22 01:26:56;;;;;;;1.00;0.90;;;15.80;67.10;;;;;;5070598;28;20320;-61
2023/01/22 01:29:44;;;;;;;1.08;0.98;;;15.70;67.10;;;;;;5073616;28;20560;-61
2023/01/22 01:32:32;;;;;;;1.20;1.10;;;15.80;67.20;;;;;;5074408;28;20257;-59
2023/01/22 01:35:21;;;;;;;1.40;1.10;;;15.80;66.80;;;;;;5075168;28;20290;-59
2023/01/22 01:38:11;;;;;;;1.33;1.10;;;15.70;67.20;;;;;;5074257;28;20220;-59
2023/01/22 01:40:59;;;;;;;1.13;1.02;;;15.60;67.40;;;;;;5073652;28;20253;-59
2023/01/22 01:44:08;;;;;;;1.27;1.17;;;15.60;67.50;;;;;;5074725;28;20204;-59
2023/01/22 01:47:00;;;;;;;2.75;1.20;;;15.60;67.70;;;;;;5074600;28;20228;-59
2023/01/22 01:49:51;;;;;;;1.10;1.00;;;15.60;67.70;;;;;;5074174;28;20212;-59
2023/01/22 01:52:40;;;;;;;0.90;0.90;;;15.70;67.70;;;;;;5073266;28;20338;-61
2023/01/22 01:55:31;;;;;;;0.80;0.80;;;15.80;69.10;;;;;;5072810;28;20228;-61
2023/01/22 01:58:21;;;;;;;1.58;0.98;;;15.80;67.60;;;;;;5091398;28;20247;-60
2023/01/22 02:01:12;;;;;;;1.73;1.20;;;15.90;67.60;;;;;;5092847;28;20673;-61
2023/01/22 02:04:00;;;;;;;1.13;1.00;;;15.90;67.50;;;;;;5093501;28;20218;-61
2023/01/22 02:06:48;;;;;;;1.20;1.10;;;15.90;67.30;;;;;;5093664;28;20245;-61
2023/01/22 02:09:38;;;;;;;1.15;1.02;;;15.90;67.30;;;;;;5093397;28;20204;-61
2023/01/22 02:12:26;;;;;;;1.10;1.00;;;16.00;67.30;;;;;;5094069;28;20249;-61
2023/01/22 02:15:14;;;;;;;1.65;1.08;;;16.00;67.20;;;;;;5092806;28;20273;-61
2023/01/22 02:18:03;;;;;;;1.40;1.30;;;16.00;67.10;;;;;;5092737;28;20711;-61
2023/01/22 02:20:57;;;;;;;1.02;0.90;;;16.00;67.10;;;;;;5093034;28;20200;-61
2023/01/22 02:23:45;;;;;;;1.17;0.90;;;16.00;67.80;;;;;;5091994;28;20233;-61
2023/01/22 02:26:34;;;;;;;1.45;1.35;;;16.00;67.10;;;;;;5095325;28;20322;-61
2023/01/22 02:29:25;;;;;;;1.27;1.17;;;16.00;67.10;;;;;;5072822;28;20228;-61
2023/01/22 02:32:13;;;;;;;1.08;1.00;;;15.90;67.00;;;;;;5073342;28;20280;-61
2023/01/22 02:35:01;;;;;;;1.67;1.13;;;16.00;67.20;;;;;;5073185;28;20742;-61
2023/01/22 02:37:51;;;;;;;1.10;1.00;;;15.90;67.10;;;;;;5073141;28;20299;-61
2023/01/22 02:40:47;;;;;;;1.42;1.33;;;15.90;67.20;;;;;;5072306;28;20196;-61
2023/01/22 02:43:36;;;;;;;1.15;1.05;;;15.80;67.10;;;;;;5072398;28;20589;-61
2023/01/22 02:46:25;;;;;;;1.15;1.05;;;15.90;67.20;;;;;;5072206;28;20216;-61
2023/01/22 02:49:13;;;;;;;1.27;1.00;;;15.90;67.30;;;;;;5072716;28;20274;-61
2023/01/22 02:52:01;;;;;;;1.38;1.25;;;15.80;67.30;;;;;;5072120;28;20250;-61
2023/01/22 02:54:50;;;;;;;1.25;1.00;;;15.70;67.30;;;;;;5072484;28;20234;-61
2023/01/22 02:57:38;;;;;;;1.00;0.90;;;15.60;67.50;;;;;;5071945;28;20295;-60
2023/01/22 03:00:26;;;;;;;1.08;0.98;;;15.60;67.70;;;;;;5071319;28;20201;-61
2023/01/22 03:03:15;;;;;;;1.10;1.00;;;15.60;67.80;;;;;;5072125;28;20279;-61
2023/01/22 03:06:03;;;;;;;1.48;1.00;;;15.60;67.80;;;;;;5072672;28;20263;-61
2023/01/22 03:08:54;;;;;;;1.00;0.90;;;15.70;67.90;;;;;;5071674;28;20695;-61
2023/01/22 03:11:46;;;;;;;0.80;0.73;;;15.70;67.90;;;;;;5072856;28;20262;-60
2023/01/22 03:23:53;;;;;;;1.10;1.00;;;15.90;67.50;;;;;;5071321;28;20200;-61
2023/01/22 03:26:42;;;;;;;1.13;1.02;;;15.90;67.40;;;;;;5072702;28;20576;-61
2023/01/22 03:29:30;;;;;;;1.25;1.15;;;16.00;67.40;;;;;;5073542;28;20576;-61
2023/01/22 03:32:19;;;;;;;1.35;1.20;;;16.00;67.30;;;;;;5075316;28;20282;-61
2023/01/22 03:35:08;;;;;;;0.95;0.90;;;16.00;67.20;;;;;;5075268;28;20302;-61
2023/01/22 03:37:56;;;;;;;1.10;0.90;;;16.00;67.20;;;;;;5075311;28;20279;-61
2023/01/22 03:40:44;;;;;;;1.00;1.00;;;16.00;67.20;;;;;;5074957;28;20665;-61
2023/01/22 03:43:34;;;;;;;1.10;1.00;;;16.10;67.30;;;;;;5076154;28;20275;-61
2023/01/22 03:46:22;;;;;;;1.75;1.17;;;15.90;67.10;;;;;;5074872;28;20300;-61
2023/01/22 03:49:13;;;;;;;1.25;0.80;;;16.00;67.20;;;;;;5075560;28;20197;-61
2023/01/22 03:52:01;;;;;;;1.10;1.00;;;15.90;67.20;;;;;;5076894;28;20617;-61
2023/01/22 03:54:49;;;;;;;0.95;0.90;;;15.90;67.20;;;;;;5075774;28;20284;-61
2023/01/22 03:57:37;;;;;;;0.88;0.88;;;15.80;67.20;;;;;;5091433;28;20215;-59
2023/01/22 04:00:28;;;;;;;1.30;0.90;;;15.90;67.30;;;;;;5100434;28;20253;-59
2023/01/22 04:03:16;;;;;;;0.82;0.82;;;15.80;67.20;;;;;;5093039;28;20299;-59
2023/01/22 04:06:04;;;;;;;0.95;0.88;;;15.80;68.00;;;;;;5091671;28;20295;-59
2023/01/22 04:08:54;;;;;;;1.08;1.00;;;15.80;67.40;;;;;;5092404;28;20200;-59
2023/01/22 04:11:42;;;;;;;1.70;1.00;;;15.80;67.40;;;;;;5091847;28;20195;-59
2023/01/22 04:14:30;;;;;;;0.70;0.70;;;15.80;67.70;;;;;;5090817;28;20249;-59
2023/01/22 04:17:19;;;;;;;1.05;0.90;;;15.70;68.40;;;;;;5091148;28;20268;-59
2023/01/22 04:20:09;;;;;;;0.93;0.93;;;15.60;67.80;;;;;;5092112;28;20586;-59
2023/01/22 04:22:57;;;;;;;1.02;0.80;;;15.60;67.90;;;;;;5092303;28;20201;-59
2023/01/22 04:25:45;;;;;;;1.58;1.00;;;15.60;67.90;;;;;;5087565;28;20220;-65
2023/01/22 04:28:33;;;;;;;1.13;0.95;;;15.60;67.90;;;;;;5071756;28;20254;-59
2023/01/22 04:31:21;;;;;;;0.80;0.80;;;15.70;67.90;;;;;;5071605;28;20280;-59
2023/01/22 04:34:11;;;;;;;1.60;0.95;;;15.70;67.70;;;;;;5071910;28;20578;-59
2023/01/22 04:36:59;;;;;;;0.90;0.80;;;15.80;67.80;;;;;;5071304;28;20383;-59
2023/01/22 04:39:47;;;;;;;1.38;0.90;;;15.80;67.70;;;;;;5071284;28;20250;-59
2023/01/22 04:42:35;;;;;;;1.25;0.90;;;15.80;67.60;;;;;;5071270;28;20193;-59
2023/01/22 04:45:23;;;;;;;0.90;0.70;;;15.90;68.90;;;;;;5071876;28;20193;-59
2023/01/22 04:48:12;;;;;;;1.27;1.17;;;15.90;67.60;;;;;;5072075;28;20200;-59
2023/01/22 04:51:02;;;;;;;0.90;0.90;;;15.90;67.50;;;;;;5071609;28;20330;-59
2023/01/22 04:53:50;;;;;;;0.80;0.80;;;15.90;67.40;;;;;;5072136;28;20250;-59
2023/01/22 04:56:38;;;;;;;1.83;1.00;;;15.90;67.30;;;;;;5075563;28;20208;-59
2023/01/22 04:59:26;;;;;;;0.90;0.70;;;15.90;67.40;;;;;;5090434;28;20295;-59
2023/01/22 05:02:14;;;;;;;0.88;0.80;;;16.00;67.50;;;;;;5090810;28;20199;-60
2023/01/22 05:05:02;;;;;;;1.00;0.90;;;15.90;67.40;;;;;;5094551;28;20200;-59
2023/01/22 05:07:52;;;;;;;0.70;0.70;;;15.90;67.40;;;;;;5095353;28;20234;-59
2023/01/22 05:10:40;;;;;;;1.23;0.80;;;15.90;67.50;;;;;;5094872;28;20604;-59
2023/01/22 05:13:28;;;;;;;0.82;0.82;;;15.90;67.50;;;;;;5095045;28;20281;-59
2023/01/22 05:16:16;;;;;;;1.02;0.93;;;15.80;67.40;;;;;;5094236;28;20303;-59
2023/01/22 05:19:04;;;;;;;0.90;0.90;;;15.80;67.50;;;;;;5094239;28;20215;-59
2023/01/22 05:21:52;;;;;;;0.90;0.90;;;15.80;67.60;;;;;;5094852;28;20192;-59
2023/01/22 05:24:42;;;;;;;1.00;0.90;;;15.70;67.60;;;;;;5094459;28;20207;-59
2023/01/22 05:27:30;;;;;;;0.80;0.80;;;15.70;67.80;;;;;;5094397;28;20223;-59
2023/01/22 05:30:18;;;;;;;1.85;1.10;;;15.60;67.80;;;;;;5094307;28;20232;-59
2023/01/22 05:33:06;;;;;;;1.33;1.10;;;15.60;68.00;;;;;;5095573;28;20573;-59
2023/01/22 05:35:59;;;;;;;0.95;0.90;;;15.50;68.00;;;;;;5094835;28;20285;-59
2023/01/22 05:38:47;;;;;;;0.90;0.90;;;15.60;68.10;;;;;;5095184;28;20220;-59
2023/01/22 05:41:37;;;;;;;0.90;0.90;;;15.60;68.10;;;;;;5094428;28;20274;-59
2023/01/22 05:44:25;;;;;;;0.93;0.82;;;15.70;68.00;;;;;;5094991;28;20669;-59
2023/01/22 05:47:14;;;;;;;1.42;1.02;;;15.70;67.90;;;;;;5094209;28;20707;-59
2023/01/22 05:50:02;;;;;;;1.25;1.15;;;15.80;67.90;;;;;;5093780;28;20248;-59
2023/01/22 05:52:54;;;;;;;1.20;1.10;;;15.80;67.80;;;;;;5094066;28;20228;-59
2023/01/22 05:55:42;;;;;;;1.63;0.90;;;15.80;67.70;;;;;;5094814;28;20220;-59
2023/01/22 05:58:33;;;;;;;1.20;1.10;;;15.80;67.60;;;;;;5073192;28;20208;-59
2023/01/22 06:01:21;;;;;;;1.17;1.00;;;15.90;67.60;;;;;;5073810;28;20303;-59
2023/01/22 06:04:09;;;;;;;1.05;0.95;;;15.90;67.50;;;;;;5074338;28;20279;-59
2023/01/22 06:06:57;;;;;;;0.95;0.93;;;15.90;67.50;;;;;;5074774;28;20273;-59
2023/01/22 06:09:45;;;;;;;1.00;0.90;;;16.00;67.60;;;;;;5073795;28;20205;-59
2023/01/22 06:12:33;;;;;;;2.72;0.90;;;15.90;67.40;;;;;;5074065;28;20208;-59
2023/01/22 06:15:22;;;;;;;0.80;0.80;;;15.80;70.30;;;;;;5073393;28;20200;-59
2023/01/22 06:18:10;;;;;;;0.90;0.90;;;15.90;67.50;;;;;;5074096;28;20398;-59
2023/01/22 06:20:59;;;;;;;1.02;0.90;;;15.90;67.40;;;;;;5073037;28;20274;-61
2023/01/22 06:23:47;;;;;;;1.17;1.00;;;15.90;67.40;;;;;;5072483;28;20232;-61
2023/01/22 06:26:35;;;;;;;1.02;0.93;;;15.90;67.40;;;;;;5073086;28;20358;-61
2023/01/22 06:29:23;;;;;;;0.95;0.95;;;16.00;67.50;;;;;;5072420;28;20196;-61
2023/01/22 06:32:12;;;;;;;1.05;0.95;;;15.90;67.30;;;;;;5072702;28;20335;-61
2023/01/22 06:35:01;;;;;;;1.13;0.93;;;15.90;67.40;;;;;;5073046;28;20335;-61
2023/01/22 06:37:49;;;;;;;1.55;1.10;;;15.90;67.50;;;;;;5147317;23;20279;-60
2023/01/22 06:40:37;;;;;;;0.90;0.90;;;15.90;67.50;;;;;;5132800;27;20218;-62
2023/01/22 06:43:26;;;;;;;1.08;1.00;;;15.70;67.60;;;;;;5133085;27;20224;-61
2023/01/22 06:46:14;;;;;;;0.90;0.85;;;15.60;67.70;;;;;;5132616;27;20219;-64
2023/01/22 06:49:04;;;;;;;1.05;1.00;;;15.60;68.00;;;;;;5132589;27;20687;-65
2023/01/22 06:51:52;;;;;;;1.00;1.00;;;15.60;68.10;;;;;;5132864;27;20682;-61
2023/01/22 06:54:40;;;;;;;0.93;0.93;;;15.60;68.20;;;;;;5133098;27;20642;-64
2023/01/22 06:57:28;;;;;;;1.02;1.00;;;15.60;68.10;;;;;;5132701;27;20283;-65
2023/01/22 07:00:17;;;;;;;1.10;0.90;;;15.70;68.10;;;;;;5132353;27;20706;-64
2023/01/22 07:03:07;;;;;;;1.10;1.00;;;15.80;68.20;;;;;;5111968;28;20203;-62
2023/01/22 07:05:57;;;;;;;0.93;0.90;;;15.90;75.30;;;;;;5112564;28;20284;-62
2023/01/22 07:08:46;;;;;;;1.30;1.10;;;15.80;67.90;;;;;;5112287;28;20301;-62
2023/01/22 07:11:34;;;;;;;1.13;1.00;;;15.90;67.80;;;;;;5112365;28;20271;-61
2023/01/22 07:14:22;;;;;;;1.10;1.00;;;15.90;67.70;;;;;;5110900;28;20276;-60
2023/01/22 07:17:23;;;;;;;0.98;0.98;;;15.90;67.70;;;;;;5111989;28;20304;-62
2023/01/22 07:20:12;;;;;;;1.25;1.00;;;15.90;67.60;;;;;;5111749;28;20215;-61
2023/01/22 07:23:01;;;;;;;1.40;1.27;;;15.90;67.50;;;;;;5112658;28;20226;-65
2023/01/22 07:25:49;;;;;;;1.10;1.00;;;16.10;74.90;;;;;;5111325;28;20636;-61
2023/01/22 07:28:37;;;;;;;0.80;0.75;;;15.90;67.50;;;;;;5111904;28;20279;-64
2023/01/22 07:31:25;;;;;;;2.22;1.15;;;15.90;67.50;;;;;;5111578;28;20274;-64
2023/01/22 07:34:13;;;;;;;1.20;1.10;;;15.90;67.50;;;;;;5111796;28;20332;-61
2023/01/22 07:37:02;;;;;;;1.40;0.90;;;15.90;67.50;;;;;;5111596;28;20226;-59
2023/01/22 07:39:51;;;;;;;1.05;1.00;;;15.90;67.50;;;;;;5111206;28;20243;-63
2023/01/22 07:42:40;;;;;;;0.90;0.90;;;15.90;67.50;;;;;;5111822;28;20240;-62
2023/01/22 07:45:28;;;;;;;0.90;0.90;;;15.90;67.50;;;;;;5112033;28;20286;-64
2023/01/22 07:48:16;;;;;;;1.00;1.00;;;16.00;67.60;;;;;;5111586;28;20283;-61
2023/01/22 07:51:05;;;;;;;1.13;1.02;;;15.90;67.40;;;;;;5110913;28;20203;-63
2023/01/22 07:53:54;;;;;;;1.35;0.98;;;16.00;67.50;;;;;;5111592;28;20335;-61
2023/01/22 07:56:44;;;;;;;0.93;0.90;;;16.00;67.60;;;;;;5116158;27;20206;-62
2023/01/22 07:59:32;;;;;;;1.00;1.00;;;15.80;67.50;;;;;;5131973;27;20246;-61
2023/01/22 08:02:20;;;;;;;1.20;1.10;;;15.80;67.80;;;;;;5131523;27;20640;-61
2023/01/22 08:05:10;;;;;;;1.20;1.00;;;15.60;67.90;;;;;;5131777;27;20571;-63
2023/01/22 08:07:58;;;;;;;1.35;0.98;;;15.60;68.10;;;;;;5131999;27;20320;-61
2023/01/22 08:10:46;;;;;;;1.55;1.00;;;15.60;68.20;;;;;;5130911;27;20275;-62
2023/01/22 08:13:36;;;;;;;1.42;0.90;;;15.60;68.20;;;;;;5131242;27;20209;-63
2023/01/22 08:16:24;;;;;;;1.35;1.00;;;15.60;68.30;;;;;;5131106;27;20270;-61
2023/01/22 08:19:12;;;;;;;0.90;0.90;;;15.70;68.30;;;;;;5131415;27;20252;-63
2023/01/22 08:22:00;;;;;;;1.60;1.08;;;15.70;68.30;;;;;;5130548;27;20282;-63
2023/01/22 08:24:48;;;;;;;1.20;1.10;;;15.70;68.10;;;;;;5131353;28;20598;-63
2023/01/22 08:27:36;;;;;;;1.05;0.98;;;15.80;68.10;;;;;;5131508;28;20313;-62
2023/01/22 08:30:26;;;;;;;1.45;1.35;;;15.80;68.00;;;;;;5130384;28;20198;-63
2023/01/22 08:33:15;;;;;;;1.20;1.10;;;15.80;67.90;;;;;;5131040;28;20213;-64
2023/01/22 08:36:03;;;;;;;1.38;1.27;;;15.90;68.00;;;;;;5130835;28;20330;-63
2023/01/22 08:38:51;;;;;;;1.15;1.10;;;15.90;67.80;;;;;;5134650;27;20209;-60
2023/01/22 08:41:39;;;;;;;1.23;1.13;;;15.90;67.70;;;;;;5134971;27;20355;-61
2023/01/22 08:44:27;;;;;;;1.55;1.45;;;15.90;67.70;;;;;;5134823;27;20191;-62
2023/01/22 08:47:17;;;;;;;1.40;1.00;;;15.90;67.70;;;;;;5134440;27;20214;-64
2023/01/22 08:50:06;;;;;;;0.95;0.90;;;16.00;67.70;;;;;;5134981;27;20207;-63
2023/01/22 08:52:55;;;;;;;1.33;1.00;;;15.90;67.70;;;;;;5135039;27;20207;-61
2023/01/22 08:55:48;;;;;;;1.27;1.02;;;15.80;74.80;;;;;;5134757;27;20799;-60
2023/01/22 08:58:36;;;;;;;1.75;1.05;;;15.90;67.70;;;;;;5115542;28;20276;-60
2023/01/22 09:01:25;;;;;;;1.10;1.00;;;15.90;67.80;;;;;;5113895;28;20790;-62
2023/01/22 09:04:14;;;;;;;1.10;1.00;;;15.90;67.70;;;;;;5114488;28;20586;-62
2023/01/22 09:07:02;;;;;;;1.15;1.05;;;15.90;67.70;;;;;;5114060;28;20652;-61
2023/01/22 09:09:50;;;;;;;1.15;1.00;;;15.90;67.60;;;;;;5113811;28;20812;-64
2023/01/22 09:12:39;;;;;;;1.40;1.30;;;16.00;67.60;;;;;;5113943;28;20274;-61
2023/01/22 09:15:27;;;;;;;1.10;1.00;;;15.90;67.50;;;;;;5113308;28;20288;-61
2023/01/22 09:18:16;;;;;;;1.25;1.00;;;16.00;67.60;;;;;;5114297;28;20195;-61
2023/01/22 09:21:05;;;;;;;1.20;1.10;;;15.90;67.70;;;;;;5113609;28;20302;-64
2023/01/22 09:23:53;;;;;;;1.35;1.10;;;15.70;67.80;;;;;;5113282;28;20279;-60
2023/01/22 09:26:42;;;;;;;1.50;1.40;;;15.60;68.00;;;;;;5113733;28;20337;-63
2023/01/22 09:29:30;;;;;;;1.52;1.42;;;15.60;68.30;;;;;;5113543;28;20264;-63
2023/01/22 09:32:18;;;;;;;1.58;1.48;;;15.70;68.40;;;;;;5114321;28;20204;-65
2023/01/22 09:35:08;;;;;;;1.10;1.05;;;15.70;68.40;;;;;;5113860;28;20337;-63
2023/01/22 09:37:57;;;;;;;1.25;1.10;;;15.70;68.40;;;;;;5113189;28;20334;-61
2023/01/22 09:40:50;;;;;;;1.20;1.10;;;15.70;68.30;;;;;;5113679;28;20248;-61
2023/01/22 09:43:45;;;;;;;1.20;1.20;;;15.80;68.30;;;;;;5113299;28;20744;-63
2023/01/22 09:46:38;;;;;;;1.33;1.20;;;15.80;68.20;;;;;;5113412;28;20254;-62
2023/01/22 09:49:31;;;;;;;1.52;1.42;;;15.90;68.20;;;;;;5112626;28;20307;-61
2023/01/22 09:52:20;;;;;;;1.65;1.15;;;15.90;68.10;;;;;;5113552;28;20198;-64
2023/01/22 09:55:12;;;;;;;1.63;1.48;;;15.90;68.00;;;;;;5113618;28;20209;-64
2023/01/22 09:58:04;;;;;;;1.50;1.40;;;15.90;67.90;;;;;;5128540;27;20215;-61
2023/01/22 10:00:56;;;;;;;1.23;1.13;;;15.90;67.80;;;;;;5134635;27;20238;-62
2023/01/22 10:03:53;;;;;;;1.27;1.17;;;15.90;67.80;;;;;;5134728;27;20198;-65
2023/01/22 10:06:44;;;;;;;1.35;1.25;;;15.90;67.80;;;;;;5133972;27;20344;-60
2023/01/22 10:09:33;;;;;;;1.10;1.10;;;16.00;67.90;;;;;;5133322;27;20343;-61
2023/01/22 10:12:23;;;;;;;1.42;1.30;;;16.00;67.90;;;;;;5133441;27;20283;-61
2023/01/22 10:15:15;;;;;;;1.05;1.05;;;16.00;67.90;;;;;;5133561;27;20793;-60
2023/01/22 10:18:12;;;;;;;1.10;1.00;;;15.90;67.90;;;;;;5133423;27;20706;-60
2023/01/22 10:21:04;;;;;;;1.60;1.10;;;15.90;67.90;;;;;;5133186;27;20343;-60
2023/01/22 10:23:55;;;;;;;1.20;1.13;;;15.90;67.90;;;;;;5132599;27;20195;-61
2023/01/22 10:26:46;;;;;;;1.60;1.10;;;15.90;67.80;;;;;;5132471;27;20222;-65
2023/01/22 10:29:36;;;;;;;1.48;1.33;;;15.90;67.80;;;;;;5133033;27;20198;-62
2023/01/22 10:32:26;;;;;;;1.48;1.38;;;15.90;67.80;;;;;;5132374;27;20791;-62
2023/01/22 10:35:18;;;;;;;1.10;1.00;;;15.90;67.90;;;;;;5133441;27;20234;-61
2023/01/22 10:38:06;;;;;;;1.35;1.20;;;15.80;67.90;;;;;;5133128;27;20253;-64
2023/01/22 10:40:59;;;;;;;1.58;1.20;;;15.70;68.80;;;;;;5133301;27;20230;-64
2023/01/22 10:43:47;;;;;;;1.10;1.10;;;15.70;68.30;;;;;;5132740;27;20206;-64
2023/01/22 10:46:37;;;;;;;1.58;1.48;;;15.70;68.50;;;;;;5132476;27;20303;-62
2023/01/22 10:49:28;;;;;;;1.65;1.42;;;15.60;68.50;;;;;;5133566;27;20331;-64
2023/01/22 10:52:25;;;;;;;1.70;1.60;;;15.60;68.50;;;;;;5132517;27;20279;-63
2023/01/22 10:55:22;;;;;;;1.33;1.17;;;15.70;68.60;;;;;;5133123;27;20282;-64
2023/01/22 10:58:16;;;;;;;1.33;1.23;;;15.80;68.60;;;;;;5115384;27;20882;-62
2023/01/22 11:01:21;;;;;;;2.10;1.20;;;15.80;68.40;;;;;;5111636;28;20202;-62
2023/01/22 11:04:19;;;;;;;1.77;1.67;;;15.80;68.30;;;;;;5112543;28;20205;-63
2023/01/22 11:07:14;;;;;;;1.30;1.20;;;15.90;68.30;;;;;;5111964;28;20341;-63
2023/01/22 11:10:15;;;;;;;1.60;1.50;;;15.90;68.20;;;;;;5111528;28;20202;-62
2023/01/22 11:13:11;;;;;;;2.42;1.80;;;15.90;68.00;;;;;;5111715;28;20202;-64
2023/01/22 11:16:05;;;;;;;0.98;0.98;;;15.80;75.90;;;;;;5112204;28;20619;-62
2023/01/22 11:18:57;;;;;;;1.40;1.30;;;16.00;68.00;;;;;;5111559;28;20325;-63
2023/01/22 11:21:49;;;;;;;1.55;1.45;;;16.00;68.00;;;;;;5111657;28;20307;-61
2023/01/22 11:24:41;;;;;;;1.60;1.50;;;16.10;68.00;;;;;;5111341;28;20293;-60
2023/01/22 11:27:44;;;;;;;1.58;1.48;;;16.00;67.90;;;;;;5111235;28;20211;-63
2023/01/22 11:31:03;;;;;;;1.77;1.67;;;15.90;67.90;;;;;;5110970;28;20226;-64
2023/01/22 11:34:09;;;;;;;1.45;1.35;;;15.90;67.90;;;;;;5111135;28;20226;-61
2023/01/22 11:37:04;;;;;;;1.60;1.40;;;15.90;68.00;;;;;;5111088;28;20826;-63
2023/01/22 11:40:03;;;;;;;1.50;1.40;;;16.00;68.10;;;;;;5110760;28;20278;-61
2023/01/22 11:43:09;;;;;;;2.35;1.55;;;16.00;68.20;;;;;;5110991;28;20255;-61
2023/01/22 11:46:21;;;;;;;1.67;1.58;;;16.00;75.40;;;;;;5110921;28;20292;-63
2023/01/22 11:49:18;;;;;;;1.40;1.30;;;15.90;68.00;;;;;;5111224;28;20198;-63
2023/01/22 11:52:19;;;;;;;1.50;1.40;;;15.90;68.00;;;;;;5111406;28;20203;-63
2023/01/22 11:55:49;;;;;;;2.00;1.33;;;15.90;68.20;;;;;;5111555;28;20201;-62
2023/01/22 11:58:45;;;;;;;2.75;1.75;;;15.70;68.30;;;;;;5049202;28;20276;-64
2023/01/22 12:01:49;;;;;;;1.45;1.35;;;15.70;68.50;;;;;;5048567;28;20255;-62
2023/01/22 12:05:05;;;;;;;1.42;1.33;;;15.60;68.50;;;;;;5111285;28;20282;-64
2023/01/22 12:08:11;;;;;;;3.85;2.13;;;15.70;68.70;;;;;;5109074;28;20215;-65
2023/01/22 12:11:14;;;;;;;1.63;1.52;;;15.70;68.80;;;;;;5110239;28;20210;-63
2023/01/22 12:14:27;;;;;;;2.33;2.03;;;15.70;68.60;;;;;;5110759;28;20292;-61
2023/01/22 12:17:29;;;;;;;2.72;1.98;;;15.80;68.60;;;;;;5110532;28;20313;-60
2023/01/22 12:20:40;;;;;;;1.45;1.35;;;15.90;68.60;;;;;;5110358;28;20199;-64
2023/01/22 12:23:35;;;;;;;1.65;1.55;;;15.90;68.50;;;;;;5110670;28;20242;-60
2023/01/22 12:26:27;;;;;;;1.60;1.50;;;15.90;68.30;;;;;;5110510;28;20219;-64
2023/01/22 12:29:21;;;;;;;1.60;1.50;;;15.90;68.30;;;;;;5110510;28;20203;-59
2023/01/22 12:32:11;;;;;;;1.30;1.20;;;15.90;68.20;;;;;;5110580;28;20274;-64
2023/01/22 12:35:04;;;;;;;1.83;1.63;;;16.00;68.20;;;;;;5110325;28;20199;-64
2023/01/22 12:38:02;;;;;;;1.48;1.30;;;16.00;68.10;;;;;;5110546;28;20314;-60
2023/01/22 12:41:05;;;;;;;1.48;1.38;;;16.00;68.10;;;;;;5110019;28;20203;-63
2023/01/22 12:43:56;;;;;;;2.03;1.50;;;16.00;68.10;;;;;;5110270;28;20271;-59
2023/01/22 12:46:52;;;;;;;1.58;1.48;;;16.00;68.10;;;;;;5110626;28;20300;-61
2023/01/22 12:49:48;;;;;;;1.67;1.58;;;16.00;68.10;;;;;;5109990;28;20199;-64
2023/01/22 12:52:39;;;;;;;1.80;1.65;;;15.90;68.00;;;;;;5110201;28;20280;-60
2023/01/22 12:55:34;;;;;;;1.85;1.40;;;15.90;68.10;;;;;;5110136;28;20206;-64
2023/01/22 12:58:26;;;;;;;1.55;1.45;;;15.80;68.10;;;;;;5129388;28;20278;-62
2023/01/22 13:01:23;;;;;;;1.27;1.23;;;15.90;68.20;;;;;;5129807;28;20567;-64
2023/01/22 13:04:12;;;;;;;1.60;1.50;;;15.90;68.30;;;;;;5130047;28;20221;-62
2023/01/22 13:07:05;;;;;;;1.63;1.52;;;15.90;68.30;;;;;;5130587;28;20222;-62
2023/01/22 13:10:04;;;;;;;3.65;1.80;;;15.80;68.30;;;;;;5129641;28;20198;-62
2023/01/22 13:12:54;;;;;;;2.00;1.88;;;15.70;68.40;;;;;;5130422;28;20274;-65
2023/01/22 13:15:53;;;;;;;1.63;1.52;;;15.70;70.60;;;;;;5130393;28;20281;-60
2023/01/22 13:18:45;;;;;;;1.60;1.50;;;15.70;68.80;;;;;;5131217;28;20203;-61
2023/01/22 13:21:34;;;;;;;1.92;1.77;;;15.70;68.80;;;;;;5131359;28;20205;-62
2023/01/22 13:24:22;;;;;;;2.10;1.60;;;15.70;68.80;;;;;;5131550;27;20629;-60
2023/01/22 13:27:22;;;;;;;1.80;1.70;;;15.70;68.70;;;;;;5134736;27;20226;-62
2023/01/22 13:30:15;;;;;;;3.08;1.50;;;15.80;68.70;;;;;;5134815;27;20602;-62
2023/01/22 13:33:10;;;;;;;3.05;1.92;;;15.80;68.60;;;;;;5133826;27;20191;-60
2023/01/22 13:36:07;;;;;;;3.28;1.75;;;16.10;75.50;;;;;;5134381;27;20277;-60
2023/01/22 13:38:57;;;;;;;1.55;1.38;;;15.90;68.40;;;;;;5134060;27;20246;-60
2023/01/22 13:41:49;;;;;;;1.80;1.50;;;15.90;68.40;;;;;;5134925;27;20331;-59
2023/01/22 13:44:40;;;;;;;1.60;1.50;;;16.00;68.40;;;;;;5133891;27;20273;-64
2023/01/22 13:47:31;;;;;;;1.77;1.67;;;16.00;68.30;;;;;;5133605;27;20267;-60
2023/01/22 13:50:23;;;;;;;2.13;1.60;;;15.90;68.20;;;;;;5133318;27;20747;-61
2023/01/22 13:53:22;;;;;;;3.60;2.17;;;16.00;68.30;;;;;;5133495;27;20278;-62
2023/01/22 13:56:15;;;;;;;2.00;1.80;;;15.90;68.10;;;;;;5133224;27;20315;-62
2023/01/22 13:59:16;;;;;;;1.75;1.65;;;15.90;68.10;;;;;;5113068;28;20302;-62
2023/01/22 14:02:21;;;;;;;2.38;1.80;;;15.90;68.20;;;;;;5113326;28;20195;-60
2023/01/22 14:05:17;;;;;;;2.15;1.90;;;15.90;68.20;;;;;;5113435;28;20195;-64
2023/01/22 14:08:09;;;;;;;2.15;1.88;;;15.90;68.20;;;;;;5112911;28;20209;-60
2023/01/22 14:10:58;;;;;;;2.20;1.85;;;15.90;68.30;;;;;;5113328;28;20257;-61
2023/01/22 14:13:47;;;;;;;2.03;1.90;;;15.90;68.30;;;;;;5112856;28;20232;-62
2023/01/22 14:16:40;;;;;;;2.75;1.67;;;15.80;68.30;;;;;;5113885;28;20215;-59
2023/01/22 14:19:28;;;;;;;1.90;1.70;;;15.80;68.30;;;;;;5112534;28;20252;-59
2023/01/22 14:22:16;;;;;;;1.83;1.60;;;15.80;68.30;;;;;;5112652;28;20290;-59
2023/01/22 14:25:07;;;;;;;4.45;2.22;;;15.70;68.40;;;;;;5113606;28;20615;-59
2023/01/22 14:27:59;;;;;;;1.85;1.70;;;15.60;68.50;;;;;;5112676;28;20302;-59
2023/01/22 14:30:48;;;;;;;1.85;1.73;;;15.60;68.70;;;;;;5112812;28;20244;-59
2023/01/22 14:33:36;;;;;;;2.15;1.92;;;15.60;68.90;;;;;;5113233;28;20621;-62
2023/01/22 14:36:24;;;;;;;2.33;2.22;;;15.70;68.90;;;;;;5112298;28;20231;-61
2023/01/22 14:39:12;;;;;;;3.75;1.92;;;15.70;68.80;;;;;;5112015;28;20215;-64
2023/01/22 14:42:02;;;;;;;2.97;1.80;;;15.80;68.80;;;;;;5112173;28;20278;-63
2023/01/22 14:44:50;;;;;;;2.83;1.63;;;15.90;68.90;;;;;;5112770;28;20326;-61
2023/01/22 14:47:38;;;;;;;1.70;1.60;;;15.90;68.70;;;;;;5112194;28;20802;-63
2023/01/22 14:50:26;;;;;;;2.30;2.10;;;16.00;68.60;;;;;;5112003;28;20682;-60
2023/01/22 14:53:15;;;;;;;3.30;2.15;;;16.00;68.50;;;;;;5112169;28;20240;-63
2023/01/22 14:56:03;;;;;;;2.50;1.90;;;16.10;68.50;;;;;;5112172;28;20306;-65
2023/01/22 14:58:53;;;;;;;2.65;2.30;;;16.00;69.00;;;;;;5112504;28;20586;-62
2023/01/22 15:01:41;;;;;;;2.28;2.08;;;16.10;68.20;;;;;;5111896;28;20663;-63